sensor_id;sensor_type;location;lat;lon;timestamp;pressure;altitude;pressure_sealevel;temperature;humidity
43878;BME280;29815;48.184;11.268;2024-01-10T00:02:22;96248.78;;;-9.67;100.00
43878;BME280;29815;48.184;11.268;2024-01-10T00:04:51;96251.97;;;-9.64;100.00
43878;BME280;29815;48.184;11.268;2024-01-10T00:07:20;96252.41;;;-9.59;100.00
43878;BME280;29815;48.184;11.268;2024-01-10T00:09:51;96252.00;;;-9.54;100.00
43878;BME280;29815;48.184;11.268;2024-01-10T00:12:20;96251.63;;;-9.49;100.00
43878;BME280;29815;48.184;11.268;2024-01-10T00:14:50;96247.09;;;-9.47;100.00
43878;BME280;29815;48.184;11.268;2024-01-10T00:17:19;96240.00;;;-9.45;100.00
43878;BME280;29815;48.184;11.268;2024-01-10T00:19:48;96251.81;;;-9.41;100.00
43878;BME280;29815;48.184;11.268;2024-01-10T00:22:18;96256.88;;;-9.40;100.00
43878;BME280;29815;48.184;11.268;2024-01-10T00:24:47;96249.78;;;-9.38;100.00
43878;BME280;29815;48.184;11.268;2024-01-10T00:27:17;96252.81;;;-9.33;100.00
43878;BME280;29815;48.184;11.268;2024-01-10T00:29:47;96248.97;;;-9.29;100.00
43878;BME280;29815;48.184;11.268;2024-01-10T00:32:16;96248.00;;;-9.28;100.00
43878;BME280;29815;48.184;11.268;2024-01-10T00:34:45;96244.06;;;-9.22;100.00
43878;BME280;29815;48.184;11.268;2024-01-10T00:37:15;96255.06;;;-9.18;100.00
43878;BME280;29815;48.184;11.268;2024-01-10T00:39:44;96258.22;;;-9.15;100.00
43878;BME280;29815;48.184;11.268;2024-01-10T00:42:14;96252.63;;;-9.10;100.00
43878;BME280;29815;48.184;11.268;2024-01-10T00:44:44;96258.53;;;-9.08;100.00
43878;BME280;29815;48.184;11.268;2024-01-10T00:47:14;96253.88;;;-9.05;100.00
43878;BME280;29815;48.184;11.268;2024-01-10T00:49:43;96258.69;;;-9.00;100.00
43878;BME280;29815;48.184;11.268;2024-01-10T00:52:12;96256.75;;;-8.98;100.00
43878;BME280;29815;48.184;11.268;2024-01-10T00:54:42;96260.50;;;-8.91;100.00
43878;BME280;29815;48.184;11.268;2024-01-10T00:57:13;96253.09;;;-8.86;100.00
43878;BME280;29815;48.184;11.268;2024-01-10T00:59:44;96253.66;;;-8.82;100.00
43878;BME280;29815;48.184;11.268;2024-01-10T01:02:14;96251.50;;;-8.77;100.00
43878;BME280;29815;48.184;11.268;2024-01-10T01:04:43;96248.59;;;-8.74;100.00
43878;BME280;29815;48.184;11.268;2024-01-10T01:07:12;96243.66;;;-8.68;100.00
43878;BME280;29815;48.184;11.268;2024-01-10T01:09:42;96255.91;;;-8.59;100.00
43878;BME280;29815;48.184;11.268;2024-01-10T01:12:11;96251.25;;;-8.55;100.00
43878;BME280;29815;48.184;11.268;2024-01-10T01:14:40;96251.66;;;-8.50;100.00
43878;BME280;29815;48.184;11.268;2024-01-10T01:17:11;96253.72;;;-8.44;100.00
43878;BME280;29815;48.184;11.268;2024-01-10T01:19:41;96249.47;;;-8.35;100.00
43878;BME280;29815;48.184;11.268;2024-01-10T01:22:11;96251.00;;;-8.33;100.00
43878;BME280;29815;48.184;11.268;2024-01-10T01:24:40;96246.84;;;-8.26;100.00
43878;BME280;29815;48.184;11.268;2024-01-10T01:27:09;96246.44;;;-8.21;100.00
43878;BME280;29815;48.184;11.268;2024-01-10T01:29:39;96256.56;;;-8.18;100.00
43878;BME280;29815;48.184;11.268;2024-01-10T01:32:08;96246.00;;;-8.16;100.00
43878;BME280;29815;48.184;11.268;2024-01-10T01:34:38;96252.72;;;-8.14;100.00
43878;BME280;29815;48.184;11.268;2024-01-10T01:37:08;96243.81;;;-8.11;100.00
43878;BME280;29815;48.184;11.268;2024-01-10T01:39:37;96251.22;;;-8.07;100.00
43878;BME280;29815;48.184;11.268;2024-01-10T01:42:07;96256.03;;;-8.02;100.00
43878;BME280;29815;48.184;11.268;2024-01-10T01:44:36;96259.22;;;-7.99;100.00
43878;BME280;29815;48.184;11.268;2024-01-10T01:47:06;96253.03;;;-7.98;100.00
43878;BME280;29815;48.184;11.268;2024-01-10T01:49:35;96260.44;;;-7.93;100.00
43878;BME280;29815;48.184;11.268;2024-01-10T01:52:06;96258.34;;;-7.90;100.00
43878;BME280;29815;48.184;11.268;2024-01-10T01:54:36;96260.13;;;-7.90;100.00
43878;BME280;29815;48.184;11.268;2024-01-10T01:57:06;96262.47;;;-7.87;100.00
43878;BME280;29815;48.184;11.268;2024-01-10T01:59:35;96270.19;;;-7.86;100.00
43878;BME280;29815;48.184;11.268;2024-01-10T02:02:04;96266.47;;;-7.83;100.00
43878;BME280;29815;48.184;11.268;2024-01-10T02:04:34;96276.78;;;-7.81;100.00
43878;BME280;29815;48.184;11.268;2024-01-10T02:07:04;96268.81;;;-7.80;100.00
43878;BME280;29815;48.184;11.268;2024-01-10T02:09:34;96269.50;;;-7.78;100.00
43878;BME280;29815;48.184;11.268;2024-01-10T02:12:05;96273.75;;;-7.77;100.00
43878;BME280;29815;48.184;11.268;2024-01-10T02:14:35;96264.94;;;-7.76;100.00
43878;BME280;29815;48.184;11.268;2024-01-10T02:17:05;96268.81;;;-7.70;100.00
43878;BME280;29815;48.184;11.268;2024-01-10T02:19:34;96271.13;;;-7.67;100.00
43878;BME280;29815;48.184;11.268;2024-01-10T02:22:04;96276.06;;;-7.64;100.00
43878;BME280;29815;48.184;11.268;2024-01-10T02:24:35;96273.84;;;-7.59;100.00
43878;BME280;29815;48.184;11.268;2024-01-10T02:27:05;96273.44;;;-7.55;100.00
43878;BME280;29815;48.184;11.268;2024-01-10T02:29:35;96272.34;;;-7.52;100.00
43878;BME280;29815;48.184;11.268;2024-01-10T02:32:05;96272.19;;;-7.51;100.00
43878;BME280;29815;48.184;11.268;2024-01-10T02:34:35;96274.38;;;-7.46;100.00
43878;BME280;29815;48.184;11.268;2024-01-10T02:37:04;96272.47;;;-7.44;100.00
43878;BME280;29815;48.184;11.268;2024-01-10T02:39:33;96267.22;;;-7.44;100.00
43878;BME280;29815;48.184;11.268;2024-01-10T02:42:03;96274.25;;;-7.44;100.00
43878;BME280;29815;48.184;11.268;2024-01-10T02:44:33;96268.06;;;-7.43;100.00
43878;BME280;29815;48.184;11.268;2024-01-10T02:47:03;96260.91;;;-7.41;100.00
43878;BME280;29815;48.184;11.268;2024-01-10T02:49:33;96263.38;;;-7.40;100.00
43878;BME280;29815;48.184;11.268;2024-01-10T02:52:03;96263.06;;;-7.37;100.00
43878;BME280;29815;48.184;11.268;2024-01-10T02:54:33;96268.97;;;-7.35;100.00
43878;BME280;29815;48.184;11.268;2024-01-10T02:57:02;96265.13;;;-7.31;100.00
43878;BME280;29815;48.184;11.268;2024-01-10T02:59:31;96258.22;;;-7.32;100.00
43878;BME280;29815;48.184;11.268;2024-01-10T03:02:02;96259.75;;;-7.29;100.00
43878;BME280;29815;48.184;11.268;2024-01-10T03:04:32;96264.84;;;-7.28;100.00
43878;BME280;29815;48.184;11.268;2024-01-10T03:07:01;96264.56;;;-7.25;100.00
43878;BME280;29815;48.184;11.268;2024-01-10T03:09:30;96262.22;;;-7.28;100.00
43878;BME280;29815;48.184;11.268;2024-01-10T03:12:00;96269.09;;;-7.27;100.00
43878;BME280;29815;48.184;11.268;2024-01-10T03:14:29;96259.31;;;-7.25;100.00
43878;BME280;29815;48.184;11.268;2024-01-10T03:16:58;96258.22;;;-7.22;100.00
43878;BME280;29815;48.184;11.268;2024-01-10T03:19:29;96254.78;;;-7.23;100.00
43878;BME280;29815;48.184;11.268;2024-01-10T03:21:58;96260.84;;;-7.22;100.00
43878;BME280;29815;48.184;11.268;2024-01-10T03:24:28;96246.66;;;-7.20;100.00
43878;BME280;29815;48.184;11.268;2024-01-10T03:26:57;96236.31;;;-7.21;100.00
43878;BME280;29815;48.184;11.268;2024-01-10T03:29:26;96241.41;;;-7.20;100.00
43878;BME280;29815;48.184;11.268;2024-01-10T03:31:55;96237.84;;;-7.19;100.00
43878;BME280;29815;48.184;11.268;2024-01-10T03:34:25;96234.94;;;-7.15;100.00
43878;BME280;29815;48.184;11.268;2024-01-10T03:36:55;96233.97;;;-7.14;100.00
43878;BME280;29815;48.184;11.268;2024-01-10T03:39:25;96227.91;;;-7.15;100.00
43878;BME280;29815;48.184;11.268;2024-01-10T03:41:54;96227.09;;;-7.15;100.00
43878;BME280;29815;48.184;11.268;2024-01-10T03:44:24;96233.13;;;-7.15;100.00
43878;BME280;29815;48.184;11.268;2024-01-10T03:46:53;96231.72;;;-7.09;100.00
43878;BME280;29815;48.184;11.268;2024-01-10T03:49:22;96235.47;;;-7.12;100.00
43878;BME280;29815;48.184;11.268;2024-01-10T03:51:52;96232.41;;;-7.07;100.00
43878;BME280;29815;48.184;11.268;2024-01-10T03:54:22;96233.91;;;-7.05;100.00
43878;BME280;29815;48.184;11.268;2024-01-10T03:56:52;96232.94;;;-7.04;100.00
43878;BME280;29815;48.184;11.268;2024-01-10T03:59:21;96228.00;;;-7.07;100.00
43878;BME280;29815;48.184;11.268;2024-01-10T04:01:50;96227.03;;;-7.06;100.00
43878;BME280;29815;48.184;11.268;2024-01-10T04:04:20;96223.59;;;-7.06;100.00
43878;BME280;29815;48.184;11.268;2024-01-10T04:06:50;96230.31;;;-7.04;100.00
43878;BME280;29815;48.184;11.268;2024-01-10T04:09:19;96228.38;;;-7.02;100.00
43878;BME280;29815;48.184;11.268;2024-01-10T04:11:50;96232.66;;;-7.01;100.00
43878;BME280;29815;48.184;11.268;2024-01-10T04:14:19;96235.94;;;-6.99;100.00
43878;BME280;29815;48.184;11.268;2024-01-10T04:16:48;96237.44;;;-6.96;100.00
43878;BME280;29815;48.184;11.268;2024-01-10T04:19:17;96240.06;;;-6.96;100.00
43878;BME280;29815;48.184;11.268;2024-01-10T04:21:47;96238.28;;;-6.96;100.00
43878;BME280;29815;48.184;11.268;2024-01-10T04:24:16;96236.34;;;-6.94;100.00
43878;BME280;29815;48.184;11.268;2024-01-10T04:26:45;96237.16;;;-6.93;100.00
43878;BME280;29815;48.184;11.268;2024-01-10T04:29:16;96241.16;;;-6.89;100.00
43878;BME280;29815;48.184;11.268;2024-01-10T04:31:45;96244.59;;;-6.89;100.00
43878;BME280;29815;48.184;11.268;2024-01-10T04:34:15;96237.41;;;-6.87;100.00
43878;BME280;29815;48.184;11.268;2024-01-10T04:36:44;96226.94;;;-6.87;100.00
43878;BME280;29815;48.184;11.268;2024-01-10T04:39:14;96223.22;;;-6.84;100.00
43878;BME280;29815;48.184;11.268;2024-01-10T04:41:43;96220.59;;;-6.84;100.00
43878;BME280;29815;48.184;11.268;2024-01-10T04:44:12;96220.97;;;-6.79;100.00
43878;BME280;29815;48.184;11.268;2024-01-10T04:46:43;96228.00;;;-6.79;100.00
43878;BME280;29815;48.184;11.268;2024-01-10T04:49:12;96221.09;;;-6.80;100.00
43878;BME280;29815;48.184;11.268;2024-01-10T04:51:42;96232.41;;;-6.80;100.00
43878;BME280;29815;48.184;11.268;2024-01-10T04:54:11;96228.00;;;-6.79;100.00
43878;BME280;29815;48.184;11.268;2024-01-10T04:56:40;96226.72;;;-6.75;100.00
43878;BME280;29815;48.184;11.268;2024-01-10T04:59:10;96227.84;;;-6.78;100.00
43878;BME280;29815;48.184;11.268;2024-01-10T05:01:39;96224.53;;;-6.80;100.00
43878;BME280;29815;48.184;11.268;2024-01-10T05:04:10;96227.31;;;-6.82;100.00
43878;BME280;29815;48.184;11.268;2024-01-10T05:06:40;96227.31;;;-6.82;100.00
43878;BME280;29815;48.184;11.268;2024-01-10T05:09:09;96222.91;;;-6.81;100.00
43878;BME280;29815;48.184;11.268;2024-01-10T05:11:38;96220.00;;;-6.78;100.00
43878;BME280;29815;48.184;11.268;2024-01-10T05:14:09;96228.81;;;-6.79;100.00
43878;BME280;29815;48.184;11.268;2024-01-10T05:16:39;96221.09;;;-6.80;100.00
43878;BME280;29815;48.184;11.268;2024-01-10T05:19:10;96225.22;;;-6.78;100.00
43878;BME280;29815;48.184;11.268;2024-01-10T05:21:39;96212.28;;;-6.79;100.00
43878;BME280;29815;48.184;11.268;2024-01-10T05:24:09;96216.69;;;-6.80;100.00
43878;BME280;29815;48.184;11.268;2024-01-10T05:26:38;96222.59;;;-6.78;100.00
43878;BME280;29815;48.184;11.268;2024-01-10T05:29:07;96219.47;;;-6.82;100.00
43878;BME280;29815;48.184;11.268;2024-01-10T05:31:36;96233.69;;;-6.84;100.00
43878;BME280;29815;48.184;11.268;2024-01-10T05:34:06;96232.88;;;-6.85;100.00
43878;BME280;29815;48.184;11.268;2024-01-10T05:36:36;96239.72;;;-6.84;100.00
43878;BME280;29815;48.184;11.268;2024-01-10T05:39:06;96236.59;;;-6.87;100.00
43878;BME280;29815;48.184;11.268;2024-01-10T05:41:35;96235.63;;;-6.86;100.00
43878;BME280;29815;48.184;11.268;2024-01-10T05:44:07;96240.72;;;-6.85;100.00
43878;BME280;29815;48.184;11.268;2024-01-10T05:46:36;96245.94;;;-6.85;100.00
43878;BME280;29815;48.184;11.268;2024-01-10T05:49:06;96249.38;;;-6.84;100.00
43878;BME280;29815;48.184;11.268;2024-01-10T05:51:36;96250.03;;;-6.82;100.00
43878;BME280;29815;48.184;11.268;2024-01-10T05:54:06;96242.34;;;-6.84;100.00
43878;BME280;29815;48.184;11.268;2024-01-10T05:56:36;96254.63;;;-6.84;100.00
43878;BME280;29815;48.184;11.268;2024-01-10T05:59:05;96252.00;;;-6.84;100.00
43878;BME280;29815;48.184;11.268;2024-01-10T06:01:34;96259.84;;;-6.84;100.00
43878;BME280;29815;48.184;11.268;2024-01-10T06:04:04;96260.81;;;-6.85;100.00
43878;BME280;29815;48.184;11.268;2024-01-10T06:06:33;96260.00;;;-6.86;100.00
43878;BME280;29815;48.184;11.268;2024-01-10T06:09:04;96263.59;;;-6.87;100.00
43878;BME280;29815;48.184;11.268;2024-01-10T06:11:34;96266.19;;;-6.87;100.00
43878;BME280;29815;48.184;11.268;2024-01-10T06:14:09;96276.34;;;-6.84;100.00
43878;BME280;29815;48.184;11.268;2024-01-10T06:16:38;96271.28;;;-6.85;100.00
43878;BME280;29815;48.184;11.268;2024-01-10T06:19:08;96277.34;;;-6.85;100.00
43878;BME280;29815;48.184;11.268;2024-01-10T06:21:38;96276.66;;;-6.87;100.00
43878;BME280;29815;48.184;11.268;2024-01-10T06:24:08;96272.41;;;-6.88;100.00
43878;BME280;29815;48.184;11.268;2024-01-10T06:26:38;96266.34;;;-6.88;100.00
43878;BME280;29815;48.184;11.268;2024-01-10T06:29:07;96270.22;;;-6.92;100.00
43878;BME280;29815;48.184;11.268;2024-01-10T06:31:36;96270.22;;;-6.92;100.00
43878;BME280;29815;48.184;11.268;2024-01-10T06:34:06;96271.47;;;-6.96;100.00
43878;BME280;29815;48.184;11.268;2024-01-10T06:36:35;96265.56;;;-6.98;100.00
43878;BME280;29815;48.184;11.268;2024-01-10T06:39:04;96270.63;;;-6.97;100.00
43878;BME280;29815;48.184;11.268;2024-01-10T06:41:35;96267.88;;;-6.95;100.00
43878;BME280;29815;48.184;11.268;2024-01-10T06:44:04;96265.84;;;-7.01;100.00
43878;BME280;29815;48.184;11.268;2024-01-10T06:46:34;96265.44;;;-7.06;100.00
43878;BME280;29815;48.184;11.268;2024-01-10T06:49:04;96270.00;;;-7.08;100.00
43878;BME280;29815;48.184;11.268;2024-01-10T06:51:35;96269.16;;;-7.09;100.00
43878;BME280;29815;48.184;11.268;2024-01-10T06:54:05;96270.59;;;-7.14;100.00
43878;BME280;29815;48.184;11.268;2024-01-10T06:56:35;96269.91;;;-7.17;100.00
43878;BME280;29815;48.184;11.268;2024-01-10T06:59:05;96268.69;;;-7.22;100.00
43878;BME280;29815;48.184;11.268;2024-01-10T07:01:34;96280.38;;;-7.26;100.00
43878;BME280;29815;48.184;11.268;2024-01-10T07:04:03;96283.97;;;-7.27;100.00
43878;BME280;29815;48.184;11.268;2024-01-10T07:06:33;96292.78;;;-7.28;100.00
43878;BME280;29815;48.184;11.268;2024-01-10T07:09:02;96289.22;;;-7.37;100.00
43878;BME280;29815;48.184;11.268;2024-01-10T07:11:33;96292.13;;;-7.40;100.00
43878;BME280;29815;48.184;11.268;2024-01-10T07:14:04;96294.06;;;-7.42;100.00
43878;BME280;29815;48.184;11.268;2024-01-10T07:16:33;96298.88;;;-7.47;100.00
43878;BME280;29815;48.184;11.268;2024-01-10T07:19:04;96300.13;;;-7.51;100.00
43878;BME280;29815;48.184;11.268;2024-01-10T07:21:33;96300.94;;;-7.51;100.00
43878;BME280;29815;48.184;11.268;2024-01-10T07:24:03;96297.38;;;-7.49;100.00
43878;BME280;29815;48.184;11.268;2024-01-10T07:26:33;96294.63;;;-7.48;100.00
43878;BME280;29815;48.184;11.268;2024-01-10T07:29:03;96295.16;;;-7.44;100.00
43878;BME280;29815;48.184;11.268;2024-01-10T07:31:36;96294.75;;;-7.40;100.00
43878;BME280;29815;48.184;11.268;2024-01-10T07:34:05;96299.16;;;-7.40;100.00
43878;BME280;29815;48.184;11.268;2024-01-10T07:36:41;96303.94;;;-7.36;100.00
43878;BME280;29815;48.184;11.268;2024-01-10T07:39:11;96296.63;;;-7.32;100.00
43878;BME280;29815;48.184;11.268;2024-01-10T07:41:43;96306.69;;;-7.28;100.00
43878;BME280;29815;48.184;11.268;2024-01-10T07:44:14;96298.53;;;-7.25;100.00
43878;BME280;29815;48.184;11.268;2024-01-10T07:46:43;96298.13;;;-7.20;100.00
43878;BME280;29815;48.184;11.268;2024-01-10T07:49:12;96298.53;;;-7.15;100.00
43878;BME280;29815;48.184;11.268;2024-01-10T07:51:44;96293.84;;;-7.11;100.00
43878;BME280;29815;48.184;11.268;2024-01-10T07:54:14;96289.81;;;-7.06;100.00
43878;BME280;29815;48.184;11.268;2024-01-10T07:56:43;96297.22;;;-7.01;100.00
43878;BME280;29815;48.184;11.268;2024-01-10T07:59:14;96295.00;;;-6.96;100.00
43878;BME280;29815;48.184;11.268;2024-01-10T08:01:44;96301.75;;;-6.94;100.00
43878;BME280;29815;48.184;11.268;2024-01-10T08:04:24;96303.13;;;-6.90;100.00
43878;BME280;29815;48.184;11.268;2024-01-10T08:06:54;96306.41;;;-6.88;100.00
43878;BME280;29815;48.184;11.268;2024-01-10T08:09:25;96301.56;;;-6.83;100.00
43878;BME280;29815;48.184;11.268;2024-01-10T08:11:55;96310.78;;;-6.78;100.00
43878;BME280;29815;48.184;11.268;2024-01-10T08:14:26;96310.34;;;-6.74;100.00
43878;BME280;29815;48.184;11.268;2024-01-10T08:16:55;96306.31;;;-6.68;100.00
43878;BME280;29815;48.184;11.268;2024-01-10T08:19:26;96306.88;;;-6.65;100.00
43878;BME280;29815;48.184;11.268;2024-01-10T08:21:56;96304.63;;;-6.60;100.00
43878;BME280;29815;48.184;11.268;2024-01-10T08:24:25;96312.56;;;-6.52;100.00
43878;BME280;29815;48.184;11.268;2024-01-10T08:26:54;96315.88;;;-6.50;100.00
43878;BME280;29815;48.184;11.268;2024-01-10T08:29:24;96326.06;;;-6.46;100.00
43878;BME280;29815;48.184;11.268;2024-01-10T08:31:59;96320.38;;;-6.42;100.00
43878;BME280;29815;48.184;11.268;2024-01-10T08:34:29;96319.13;;;-6.38;100.00
43878;BME280;29815;48.184;11.268;2024-01-10T08:36:58;96317.03;;;-6.34;100.00
43878;BME280;29815;48.184;11.268;2024-01-10T08:39:28;96322.66;;;-6.29;100.00
43878;BME280;29815;48.184;11.268;2024-01-10T08:41:58;96321.22;;;-6.24;100.00
43878;BME280;29815;48.184;11.268;2024-01-10T08:44:27;96322.59;;;-6.20;100.00
43878;BME280;29815;48.184;11.268;2024-01-10T08:46:58;96325.06;;;-6.18;100.00
43878;BME280;29815;48.184;11.268;2024-01-10T08:49:27;96327.69;;;-6.18;100.00
43878;BME280;29815;48.184;11.268;2024-01-10T08:51:57;96322.00;;;-6.13;100.00
43878;BME280;29815;48.184;11.268;2024-01-10T08:54:26;96322.81;;;-6.13;100.00
43878;BME280;29815;48.184;11.268;2024-01-10T08:56:56;96319.22;;;-6.12;100.00
43878;BME280;29815;48.184;11.268;2024-01-10T08:59:26;96316.47;;;-6.10;100.00
43878;BME280;29815;48.184;11.268;2024-01-10T09:01:56;96327.47;;;-6.07;100.00
43878;BME280;29815;48.184;11.268;2024-01-10T09:04:26;96327.19;;;-6.04;100.00
43878;BME280;29815;48.184;11.268;2024-01-10T09:06:56;96318.19;;;-6.01;100.00
43878;BME280;29815;48.184;11.268;2024-01-10T09:09:26;96330.00;;;-5.97;100.00
43878;BME280;29815;48.184;11.268;2024-01-10T09:11:55;96334.97;;;-5.94;100.00
43878;BME280;29815;48.184;11.268;2024-01-10T09:14:24;96340.59;;;-5.89;100.00
43878;BME280;29815;48.184;11.268;2024-01-10T09:16:54;96340.13;;;-5.85;100.00
43878;BME280;29815;48.184;11.268;2024-01-10T09:19:23;96343.94;;;-5.79;100.00
43878;BME280;29815;48.184;11.268;2024-01-10T09:21:54;96341.38;;;-5.71;100.00
43878;BME280;29815;48.184;11.268;2024-01-10T09:24:23;96341.75;;;-5.66;100.00
43878;BME280;29815;48.184;11.268;2024-01-10T09:26:57;96349.03;;;-5.60;100.00
43878;BME280;29815;48.184;11.268;2024-01-10T09:29:26;96352.03;;;-5.55;100.00
43878;BME280;29815;48.184;11.268;2024-01-10T09:31:55;96345.66;;;-5.52;100.00
43878;BME280;29815;48.184;11.268;2024-01-10T09:34:25;96345.50;;;-5.51;100.00
43878;BME280;29815;48.184;11.268;2024-01-10T09:36:55;96350.94;;;-5.44;100.00
43878;BME280;29815;48.184;11.268;2024-01-10T09:39:25;96353.94;;;-5.39;100.00
43878;BME280;29815;48.184;11.268;2024-01-10T09:41:54;96353.13;;;-5.39;100.00
43878;BME280;29815;48.184;11.268;2024-01-10T09:44:25;96361.81;;;-5.39;100.00
43878;BME280;29815;48.184;11.268;2024-01-10T09:46:54;96359.56;;;-5.34;100.00
43878;BME280;29815;48.184;11.268;2024-01-10T09:49:24;96358.13;;;-5.28;100.00
43878;BME280;29815;48.184;11.268;2024-01-10T09:51:58;96366.09;;;-5.20;100.00
43878;BME280;29815;48.184;11.268;2024-01-10T09:54:30;96363.66;;;-5.14;100.00
43878;BME280;29815;48.184;11.268;2024-01-10T09:56:59;96365.38;;;-5.04;100.00
43878;BME280;29815;48.184;11.268;2024-01-10T09:59:29;96362.66;;;-4.95;100.00
43878;BME280;29815;48.184;11.268;2024-01-10T10:01:58;96365.47;;;-4.88;100.00
43878;BME280;29815;48.184;11.268;2024-01-10T10:04:27;96356.66;;;-4.79;100.00
43878;BME280;29815;48.184;11.268;2024-01-10T10:07:01;96359.34;;;-4.71;100.00
43878;BME280;29815;48.184;11.268;2024-01-10T10:09:31;96363.94;;;-4.65;100.00
43878;BME280;29815;48.184;11.268;2024-01-10T10:12:00;96366.75;;;-4.66;100.00
43878;BME280;29815;48.184;11.268;2024-01-10T10:14:30;96365.13;;;-4.67;100.00
43878;BME280;29815;48.184;11.268;2024-01-10T10:17:13;96362.16;;;-4.64;100.00
43878;BME280;29815;48.184;11.268;2024-01-10T10:19:44;96366.44;;;-4.63;100.00
43878;BME280;29815;48.184;11.268;2024-01-10T10:22:15;96367.41;;;-4.64;100.00
43878;BME280;29815;48.184;11.268;2024-01-10T10:24:48;96365.78;;;-4.65;100.00
43878;BME280;29815;48.184;11.268;2024-01-10T10:27:17;96365.28;;;-4.61;100.00
43878;BME280;29815;48.184;11.268;2024-01-10T10:29:47;96366.13;;;-4.60;100.00
43878;BME280;29815;48.184;11.268;2024-01-10T10:32:16;96368.13;;;-4.54;100.00
43878;BME280;29815;48.184;11.268;2024-01-10T10:34:46;96365.03;;;-4.50;100.00
43878;BME280;29815;48.184;11.268;2024-01-10T10:37:17;96372.09;;;-4.50;100.00
43878;BME280;29815;48.184;11.268;2024-01-10T10:39:46;96366.38;;;-4.46;100.00
43878;BME280;29815;48.184;11.268;2024-01-10T10:42:16;96366.38;;;-4.46;100.00
43878;BME280;29815;48.184;11.268;2024-01-10T10:44:49;96367.16;;;-4.53;100.00
43878;BME280;29815;48.184;11.268;2024-01-10T10:47:19;96355.81;;;-4.54;100.00
43878;BME280;29815;48.184;11.268;2024-01-10T10:49:53;96360.56;;;-4.57;100.00
43878;BME280;29815;48.184;11.268;2024-01-10T10:52:24;96369.94;;;-4.55;100.00
43878;BME280;29815;48.184;11.268;2024-01-10T10:54:55;96365.66;;;-4.56;100.00
43878;BME280;29815;48.184;11.268;2024-01-10T10:57:25;96367.47;;;-4.56;100.00
43878;BME280;29815;48.184;11.268;2024-01-10T10:59:55;96372.25;;;-4.52;100.00
43878;BME280;29815;48.184;11.268;2024-01-10T11:02:26;96369.31;;;-4.49;100.00
43878;BME280;29815;48.184;11.268;2024-01-10T11:04:59;96368.03;;;-4.45;100.00
43878;BME280;29815;48.184;11.268;2024-01-10T11:07:30;96369.97;;;-4.47;100.00
43878;BME280;29815;48.184;11.268;2024-01-10T11:09:59;96373.13;;;-4.43;100.00
43878;BME280;29815;48.184;11.268;2024-01-10T11:12:39;96367.41;;;-4.38;100.00
43878;BME280;29815;48.184;11.268;2024-01-10T11:15:24;96372.00;;;-4.32;100.00
43878;BME280;29815;48.184;11.268;2024-01-10T11:18:18;96367.22;;;-4.37;100.00
43878;BME280;29815;48.184;11.268;2024-01-10T11:21:06;96368.56;;;-4.33;100.00
43878;BME280;29815;48.184;11.268;2024-01-10T11:23:48;96361.03;;;-4.28;100.00
43878;BME280;29815;48.184;11.268;2024-01-10T11:26:19;96364.97;;;-4.24;100.00
43878;BME280;29815;48.184;11.268;2024-01-10T11:28:49;96362.41;;;-4.16;100.00
43878;BME280;29815;48.184;11.268;2024-01-10T11:31:27;96364.03;;;-4.15;100.00
43878;BME280;29815;48.184;11.268;2024-01-10T11:33:58;96365.84;;;-4.07;100.00
43878;BME280;29815;48.184;11.268;2024-01-10T11:36:29;96360.28;;;-4.12;100.00
43878;BME280;29815;48.184;11.268;2024-01-10T11:39:03;96365.69;;;-4.05;100.00
43878;BME280;29815;48.184;11.268;2024-01-10T11:41:35;96361.94;;;-4.03;100.00
43878;BME280;29815;48.184;11.268;2024-01-10T11:47:03;96356.19;;;-3.98;100.00
43878;BME280;29815;48.184;11.268;2024-01-10T11:49:33;96367.69;;;-3.99;100.00
43878;BME280;29815;48.184;11.268;2024-01-10T11:52:02;96360.91;;;-4.10;100.00
43878;BME280;29815;48.184;11.268;2024-01-10T11:54:41;96357.13;;;-4.16;100.00
43878;BME280;29815;48.184;11.268;2024-01-10T11:57:12;96368.47;;;-4.15;100.00
43878;BME280;29815;48.184;11.268;2024-01-10T11:59:43;96369.56;;;-4.26;100.00
43878;BME280;29815;48.184;11.268;2024-01-10T12:02:14;96368.56;;;-4.33;100.00
43878;BME280;29815;48.184;11.268;2024-01-10T12:04:44;96360.16;;;-4.36;100.00
43878;BME280;29815;48.184;11.268;2024-01-10T12:07:16;96366.72;;;-4.40;100.00
43878;BME280;29815;48.184;11.268;2024-01-10T12:09:49;96372.47;;;-4.37;100.00
43878;BME280;29815;48.184;11.268;2024-01-10T12:12:18;96366.28;;;-4.28;100.00
43878;BME280;29815;48.184;11.268;2024-01-10T12:14:48;96372.88;;;-4.24;100.00
43878;BME280;29815;48.184;11.268;2024-01-10T12:17:19;96376.31;;;-4.23;100.00
43878;BME280;29815;48.184;11.268;2024-01-10T12:19:48;96377.00;;;-4.21;100.00
43878;BME280;29815;48.184;11.268;2024-01-10T12:22:18;96370.91;;;-4.22;100.00
43878;BME280;29815;48.184;11.268;2024-01-10T12:24:49;96371.94;;;-4.15;100.00
43878;BME280;29815;48.184;11.268;2024-01-10T12:27:19;96368.94;;;-4.20;100.00
43878;BME280;29815;48.184;11.268;2024-01-10T12:29:51;96359.63;;;-4.14;100.00
43878;BME280;29815;48.184;11.268;2024-01-10T12:32:22;96369.50;;;-4.00;100.00
43878;BME280;29815;48.184;11.268;2024-01-10T12:34:57;96364.44;;;-3.93;100.00
43878;BME280;29815;48.184;11.268;2024-01-10T12:37:28;96361.97;;;-3.95;100.00
43878;BME280;29815;48.184;11.268;2024-01-10T12:39:59;96349.47;;;-3.93;100.00
43878;BME280;29815;48.184;11.268;2024-01-10T12:42:31;96355.59;;;-3.84;100.00
43878;BME280;29815;48.184;11.268;2024-01-10T12:45:00;96356.25;;;-3.74;100.00
43878;BME280;29815;48.184;11.268;2024-01-10T12:47:29;96351.50;;;-3.70;100.00
43878;BME280;29815;48.184;11.268;2024-01-10T12:49:59;96344.75;;;-3.73;100.00
43878;BME280;29815;48.184;11.268;2024-01-10T12:52:29;96348.06;;;-3.63;100.00
43878;BME280;29815;48.184;11.268;2024-01-10T12:54:59;96344.59;;;-3.63;100.00
43878;BME280;29815;48.184;11.268;2024-01-10T12:57:29;96357.75;;;-3.63;100.00
43878;BME280;29815;48.184;11.268;2024-01-10T12:59:58;96353.47;;;-3.64;100.00